Time;durP1;ratioP1;P1;durP2;ratioP2;P2;SDS_P1;SDS_P2;PMS_P1;PMS_P2;Temp;Humidity;BMP_temperature;BMP_pressure;BME280_temperature;BME280_humidity;BME280_pressure;Samples;Min_cycle;Max_cycle;Signal;HPM_P1;HPM_P2
2022/12/21 06:17:08;;;;;;;29.03;22.10;;;;;;;1.75;100.00;96402.47;4856997;27;111008;-68
2022/12/21 06:19:36;;;;;;;27.87;21.53;;;;;;;1.87;100.00;96403.53;5017614;28;102120;-68
2022/12/21 06:22:03;;;;;;;33.30;23.77;;;;;;;1.92;100.00;96399.28;5012604;28;102423;-68
2022/12/21 06:24:30;;;;;;;28.10;23.03;;;;;;;1.81;100.00;96393.81;5029496;28;102614;-68
2022/12/21 06:26:56;;;;;;;29.63;22.27;;;;;;;1.95;100.00;96388.41;5011997;28;102092;-68
2022/12/21 06:29:23;;;;;;;31.00;22.67;;;;;;;1.95;100.00;96390.22;5011943;28;103814;-69
2022/12/21 06:31:50;;;;;;;28.60;23.10;;;;;;;1.96;100.00;96391.84;5044867;27;105423;-69
2022/12/21 06:34:19;;;;;;;29.63;22.07;;;;;;;1.98;100.00;96395.88;5029839;28;102106;-69
2022/12/21 06:36:47;;;;;;;25.77;21.10;;;;;;;2.05;100.00;96399.34;5011933;28;104746;-69
2022/12/21 06:39:14;;;;;;;26.13;21.13;;;;;;;2.06;100.00;96405.38;5047920;27;105623;-69
2022/12/21 06:41:40;;;;;;;25.20;21.50;;;;;;;2.10;100.00;96412.69;5011965;28;103838;-68
2022/12/21 06:44:08;;;;;;;25.37;21.67;;;;;;;2.03;100.00;96418.91;5011061;28;105799;-68
2022/12/21 06:46:35;;;;;;;27.33;21.43;;;;;;;2.00;100.00;96412.25;5011622;28;101987;-68
2022/12/21 06:49:02;;;;;;;27.20;21.13;;;;;;;1.99;100.00;96410.63;5045196;27;105174;-68
2022/12/21 06:51:31;;;;;;;25.20;20.67;;;;;;;2.05;100.00;96409.03;5029038;28;103143;-68
2022/12/21 06:53:58;;;;;;;31.37;21.37;;;;;;;2.09;100.00;96407.63;5011431;28;102082;-68
2022/12/21 06:56:28;;;;;;;26.13;20.67;;;;;;;1.99;100.00;96421.13;5011707;28;105168;-68
2022/12/21 06:58:55;;;;;;;33.53;24.50;;;;;;;2.07;100.00;96407.03;5029069;28;102608;-68
2022/12/21 07:01:24;;;;;;;28.33;21.77;;;;;;;2.10;100.00;96427.59;5014732;28;102008;-68
2022/12/21 07:03:51;;;;;;;35.87;25.67;;;;;;;2.10;100.00;96410.06;5010739;28;105652;-68
2022/12/21 07:06:19;;;;;;;33.40;24.23;;;;;;;2.17;100.00;96417.94;5011393;28;101892;-68
2022/12/21 07:08:48;;;;;;;32.97;24.97;;;;;;;2.12;100.00;96421.16;5010995;28;105010;-68
2022/12/21 07:11:17;;;;;;;34.77;24.73;;;;;;;2.18;100.00;96424.81;5009755;28;105032;-68
2022/12/21 07:13:46;;;;;;;35.87;24.20;;;;;;;2.23;100.00;96428.44;5011332;28;102467;-68
2022/12/21 07:16:14;;;;;;;32.67;24.53;;;;;;;2.23;100.00;96432.88;4993773;28;106273;-68
2022/12/21 07:18:42;;;;;;;28.70;21.57;;;;;;;2.30;100.00;96438.97;5044408;27;104007;-68
2022/12/21 07:21:12;;;;;;;29.73;22.90;;;;;;;2.32;100.00;96439.56;5010932;28;101907;-68
2022/12/21 07:23:39;;;;;;;32.87;23.60;;;;;;;2.35;100.00;96436.56;5013574;28;103739;-68
2022/12/21 07:26:10;;;;;;;29.13;21.93;;;;;;;2.37;100.00;96440.59;5011038;28;101793;-68
2022/12/21 07:28:37;;;;;;;28.87;22.57;;;;;;;2.44;100.00;96427.47;5044396;27;105414;-68
2022/12/21 07:31:05;;;;;;;32.70;23.43;;;;;;;2.43;100.00;96431.13;5010246;28;103812;-63
2022/12/21 07:33:32;;;;;;;30.50;23.40;;;;;;;2.42;100.00;96434.75;5011128;28;102042;-63
2022/12/21 07:36:00;;;;;;;29.07;22.40;;;;;;;2.41;100.00;96430.53;5044346;27;105197;-70
2022/12/21 07:38:28;;;;;;;29.90;23.47;;;;;;;2.33;100.00;96417.56;5028452;28;103106;-64
2022/12/21 07:40:57;;;;;;;33.80;22.60;;;;;;;2.29;100.00;96426.88;5010793;28;102079;-74
2022/12/21 07:43:26;;;;;;;28.83;21.43;;;;;;;2.33;100.00;96428.06;5028937;28;102808;-68
2022/12/21 07:46:12;;;;;;;27.77;20.27;;;;;;;2.28;100.00;96433.09;5013725;28;105234;-68
2022/12/21 07:48:39;;;;;;;29.80;22.27;;;;;;;2.39;100.00;96429.88;5044657;27;105536;-68
2022/12/21 07:51:07;;;;;;;30.93;21.70;;;;;;;2.40;100.00;96437.56;5010048;28;105507;-68
2022/12/21 07:53:34;;;;;;;28.10;20.87;;;;;;;2.55;100.00;96440.03;5010473;28;102095;-68
2022/12/21 07:56:02;;;;;;;26.60;21.50;;;;;;;2.49;100.00;96439.00;5010626;28;105155;-68
2022/12/21 07:58:30;;;;;;;41.33;31.50;;;;;;;2.45;100.00;96439.59;5043603;27;105500;-68
2022/12/21 08:01:05;;;;;;;38.30;29.00;;;;;;;2.58;100.00;96442.25;5044229;27;101905;-68
2022/12/21 08:03:32;;;;;;;28.80;22.97;;;;;;;2.49;100.00;96439.00;5010584;28;104915;-68
2022/12/21 08:05:59;;;;;;;24.47;20.33;;;;;;;2.38;100.00;96426.47;5047131;27;105043;-68
2022/12/21 08:08:25;;;;;;;27.13;22.13;;;;;;;2.49;100.00;96432.94;5010469;28;105059;-68
2022/12/21 08:10:52;;;;;;;28.27;22.50;;;;;;;2.57;100.00;96430.16;5009505;28;105601;-68
2022/12/21 08:13:19;;;;;;;29.47;23.00;;;;;;;2.62;100.00;96433.78;5044086;27;102022;-68
2022/12/21 08:15:48;;;;;;;29.07;22.30;;;;;;;2.63;100.00;96430.13;5009963;28;103762;-68
2022/12/21 08:18:14;;;;;;;32.43;23.70;;;;;;;2.69;100.00;96425.91;5043686;27;103740;-68
2022/12/21 08:20:44;;;;;;;30.80;23.27;;;;;;;2.80;100.00;96431.38;5010452;28;101851;-68
2022/12/21 08:23:11;;;;;;;31.60;24.13;;;;;;;2.86;100.00;96435.03;5009981;28;105489;-68
2022/12/21 08:25:38;;;;;;;31.63;22.33;;;;;;;2.83;100.00;96435.41;5009916;28;104030;-68
2022/12/21 08:28:05;;;;;;;26.87;22.10;;;;;;;2.86;100.00;96429.75;5013623;28;101868;-68
2022/12/21 08:30:33;;;;;;;27.70;21.53;;;;;;;2.94;100.00;96440.06;5027888;28;102589;-68
2022/12/21 08:33:01;;;;;;;47.37;29.07;;;;;;;2.98;100.00;96446.53;5009984;28;101910;-68
2022/12/21 08:35:29;;;;;;;45.30;27.40;;;;;;;2.99;100.00;96440.25;5043916;27;104879;-68
2022/12/21 08:37:56;;;;;;;36.10;26.87;;;;;;;2.87;100.00;96440.06;5009433;27;105149;-68
2022/12/21 08:40:23;;;;;;;37.10;26.30;;;;;;;3.06;100.00;96436.63;5012717;28;101945;-68
2022/12/21 08:42:50;;;;;;;41.00;31.53;;;;;;;2.93;100.00;96449.78;5013530;28;103628;-68
2022/12/21 08:45:17;;;;;;;38.63;28.97;;;;;;;2.84;100.00;96448.34;5012969;28;103803;-68
2022/12/21 08:47:44;;;;;;;33.67;26.03;;;;;;;2.80;100.00;96448.97;5013480;28;101935;-68
2022/12/21 08:50:13;;;;;;;33.80;24.90;;;;;;;2.78;100.00;96450.97;5016195;28;103517;-68
2022/12/21 08:52:40;;;;;;;33.23;25.30;;;;;;;2.89;100.00;96450.38;5012698;28;101966;-68
2022/12/21 08:55:08;;;;;;;31.63;24.57;;;;;;;3.01;100.00;96451.41;5012885;28;105417;-68
2022/12/21 08:57:35;;;;;;;33.33;26.00;;;;;;;3.09;100.00;96451.19;5012740;28;104888;-68
2022/12/21 09:00:02;;;;;;;29.63;23.60;;;;;;;3.29;100.00;96446.72;5013397;28;101940;-68
2022/12/21 09:02:29;;;;;;;32.80;24.30;;;;;;;3.27;100.00;96443.50;5013208;28;105760;-68
2022/12/21 09:04:56;;;;;;;32.33;25.13;;;;;;;3.27;100.00;96438.25;5012627;28;105016;-68
2022/12/21 09:07:24;;;;;;;29.03;23.60;;;;;;;3.30;100.00;96453.59;5013253;28;101862;-68
2022/12/21 09:09:51;;;;;;;36.23;25.77;;;;;;;3.28;100.00;96440.66;5013069;28;104827;-68
2022/12/21 09:12:18;;;;;;;31.43;24.37;;;;;;;3.44;100.00;96442.06;5015750;28;105029;-69
2022/12/21 09:14:45;;;;;;;39.33;28.63;;;;;;;3.45;100.00;96446.31;5012959;28;103760;-68
2022/12/21 09:17:12;;;;;;;32.83;25.27;;;;;;;3.42;100.00;96441.44;5011618;28;105027;-68
2022/12/21 09:19:39;;;;;;;33.70;26.13;;;;;;;3.35;100.00;96430.16;5046787;27;101866;-68
2022/12/21 09:22:05;;;;;;;30.87;22.83;;;;;;;3.57;100.00;96436.78;5046440;27;105821;-68
2022/12/21 09:24:34;;;;;;;30.53;22.87;;;;;;;3.58;100.00;96428.69;5012148;28;105047;-68
2022/12/21 09:27:01;;;;;;;26.20;21.37;;;;;;;3.59;100.00;96424.22;5031037;28;101824;-68
2022/12/21 09:29:28;;;;;;;26.80;22.70;;;;;;;3.63;100.00;96421.00;5013006;28;105120;-68
2022/12/21 09:31:55;;;;;;;30.07;23.80;;;;;;;3.62;100.00;96422.00;5030439;28;102909;-68
2022/12/21 09:34:22;;;;;;;28.03;23.63;;;;;;;3.53;100.00;96417.97;5049618;27;101848;-68
2022/12/21 09:36:49;;;;;;;31.73;24.30;;;;;;;3.63;100.00;96414.91;5045859;27;105256;-68
2022/12/21 09:39:16;;;;;;;26.97;22.93;;;;;;;3.80;100.00;96408.19;5012745;28;102130;-68
2022/12/21 09:45:16;;;;;;;26.77;22.13;;;;;;;3.83;100.00;96402.53;5027211;28;102210;-68
2022/12/21 09:47:48;;;;;;;29.03;22.33;;;;;;;3.85;100.00;96396.03;5030966;28;101659;-68
2022/12/21 09:50:21;;;;;;;25.90;21.53;;;;;;;3.96;100.00;96399.84;5011926;28;105119;-68
2022/12/21 09:52:53;;;;;;;29.10;23.30;;;;;;;3.88;100.00;96405.34;5011791;28;105519;-68
2022/12/21 09:55:25;;;;;;;26.70;22.87;;;;;;;3.84;100.00;96402.31;5012456;28;101828;-68
2022/12/21 09:57:55;;;;;;;25.97;21.67;;;;;;;3.83;100.00;96384.13;5015371;28;103898;-67
2022/12/21 10:00:25;;;;;;;28.03;23.30;;;;;;;3.96;100.00;96386.69;5030483;28;101827;-68
2022/12/21 10:03:15;;;;;;;30.97;22.50;;;;;;;4.04;100.00;96392.50;5030832;28;102858;-68
2022/12/21 10:06:07;;;;;;;29.03;22.80;;;;;;;4.23;100.00;96378.47;5029632;28;102793;-68
2022/12/21 10:08:53;;;;;;;28.97;22.57;;;;;;;4.46;100.00;96383.16;5030555;28;101771;-68
2022/12/21 10:11:35;;;;;;;32.80;24.80;;;;;;;4.63;100.00;96385.06;5030070;28;102305;-68
2022/12/21 10:14:15;;;;;;;32.53;25.60;;;;;;;4.75;100.00;96382.56;5011065;28;103769;-68
2022/12/21 10:16:51;;;;;;;33.97;27.57;;;;;;;4.39;100.00;96375.31;5011583;28;101829;-68
2022/12/21 10:19:25;;;;;;;41.80;29.27;;;;;;;4.48;100.00;96373.25;5033384;28;102315;-68
2022/12/21 10:21:58;;;;;;;26.63;20.00;;;;;;;4.68;100.00;96372.06;5029945;28;101753;-68
2022/12/21 10:24:29;;;;;;;27.17;21.07;;;;;;;4.89;100.00;96373.53;5030348;28;102358;-68
2022/12/21 10:27:02;;;;;;;31.47;23.43;;;;;;;5.13;100.00;96364.81;5029720;28;102676;-68
2022/12/21 10:29:34;;;;;;;32.53;24.97;;;;;;;5.14;100.00;96371.69;5030154;28;101657;-68
2022/12/21 10:32:02;;;;;;;30.57;23.80;;;;;;;5.38;100.00;96368.22;5011850;28;103870;-68
2022/12/21 10:34:34;;;;;;;30.40;23.10;;;;;;;5.42;100.00;96364.94;5029580;28;102603;-68
2022/12/21 10:37:10;;;;;;;28.80;22.43;;;;;;;5.35;100.00;96358.91;5011873;28;101988;-68
2022/12/21 10:39:37;;;;;;;27.10;21.17;;;;;;;5.45;100.00;96361.84;5029964;28;102520;-68
2022/12/21 10:42:09;;;;;;;25.97;20.83;;;;;;;5.44;100.00;96364.69;5032920;28;102676;-68
2022/12/21 10:44:41;;;;;;;26.57;21.37;;;;;;;5.39;100.00;96359.28;5029940;28;102461;-68
2022/12/21 10:47:13;;;;;;;29.10;19.90;;;;;;;5.48;100.00;96356.16;5011122;28;105023;-68
2022/12/21 10:49:42;;;;;;;25.33;20.13;;;;;;;5.54;100.00;96354.44;4995369;28;102158;-67
2022/12/21 10:52:38;;;;;;;24.77;19.87;;;;;;;5.54;100.00;96351.81;5011218;28;104008;-68
2022/12/21 10:55:06;;;;;;;24.20;20.60;;;;;;;5.52;100.00;96348.59;5010926;28;105029;-68
2022/12/21 10:57:33;;;;;;;25.07;20.77;;;;;;;5.49;100.00;96344.56;5029504;28;101805;-68
2022/12/21 11:00:25;;;;;;;23.13;18.50;;;;;;;5.51;100.00;96336.44;5011538;28;105397;-68
2022/12/21 11:02:53;;;;;;;25.70;19.27;;;;;;;5.41;100.00;96342.22;5009868;28;105762;-68
2022/12/21 11:05:29;;;;;;;29.20;20.97;;;;;;;5.17;100.00;96334.34;5033423;28;102050;-67
2022/12/21 11:08:12;;;;;;;25.27;21.03;;;;;;;5.25;100.00;96328.81;5028469;28;102779;-68
2022/12/21 11:10:39;;;;;;;25.83;18.57;;;;;;;5.34;100.00;96330.16;5028558;28;101816;-67
2022/12/21 11:13:07;;;;;;;26.20;20.30;;;;;;;5.42;100.00;96332.47;5029451;28;102343;-68
2022/12/21 11:15:36;;;;;;;26.77;19.50;;;;;;;5.36;100.00;96344.69;5009922;28;105369;-68
2022/12/21 11:18:04;;;;;;;20.83;17.37;;;;;;;5.26;100.00;96343.59;5011240;28;101807;-68
2022/12/21 11:20:31;;;;;;;22.43;15.93;;;;;;;5.29;100.00;96340.53;5011029;28;105375;-68
2022/12/21 11:23:03;;;;;;;22.50;16.57;;;;;;;5.26;100.00;96331.22;5010372;28;104108;-68
2022/12/21 11:25:31;;;;;;;19.27;15.77;;;;;;;5.41;100.00;96318.47;5011104;28;102168;-68
2022/12/21 11:28:02;;;;;;;20.57;16.10;;;;;;;5.48;100.00;96331.59;5013994;28;104084;-68
2022/12/21 11:30:31;;;;;;;20.13;16.23;;;;;;;5.38;100.00;96320.75;5011211;28;101870;-68
2022/12/21 11:33:00;;;;;;;21.83;17.37;;;;;;;5.76;100.00;96316.03;5010533;28;105127;-68
2022/12/21 11:35:29;;;;;;;23.93;18.53;;;;;;;5.53;100.00;96321.19;5010468;28;103865;-68
2022/12/21 11:37:58;;;;;;;21.50;16.87;;;;;;;5.35;100.00;96326.47;5010769;28;101888;-68
2022/12/21 11:40:27;;;;;;;19.97;15.20;;;;;;;5.40;100.00;96329.25;5010969;28;103885;-69
2022/12/21 11:43:02;;;;;;;21.33;16.73;;;;;;;5.22;100.00;96337.13;5010090;28;103786;-69
2022/12/21 11:45:40;;;;;;;20.33;15.33;;;;;;;5.02;100.00;96331.28;5029313;28;101761;-69
2022/12/21 11:48:27;;;;;;;21.27;15.83;;;;;;;5.17;100.00;96326.44;5010893;28;104821;-69
2022/12/21 11:51:02;;;;;;;49.70;34.00;;;;;;;5.46;100.00;96304.66;5047458;27;105526;-69
2022/12/21 11:53:56;;;;;;;62.00;40.03;;;;;;;5.28;100.00;96326.53;5010546;28;105644;-69
2022/12/21 11:56:32;;;;;;;22.13;16.83;;;;;;;5.07;100.00;96316.41;5010011;28;105366;-69
2022/12/21 11:59:22;;;;;;;20.63;15.77;;;;;;;5.47;100.00;96314.16;5010765;28;101897;-69
2022/12/21 12:02:06;;;;;;;56.40;50.70;;;;;;;5.40;100.00;96298.41;5028999;28;102514;-69
2022/12/21 12:05:03;;;;;;;34.37;26.67;;;;;;;5.51;100.00;96292.41;5009809;28;103798;-69
2022/12/21 12:07:45;;;;;;;23.30;18.87;;;;;;;5.54;100.00;96288.50;5010512;28;102082;-69
2022/12/21 12:10:53;;;;;;;22.53;16.47;;;;;;;5.52;100.00;96286.09;5010607;28;105158;-69
2022/12/21 12:13:39;;;;;;;22.80;17.67;;;;;;;5.55;100.00;96292.75;5013063;27;103729;-69
2022/12/21 12:16:17;;;;;;;22.43;16.77;;;;;;;5.53;100.00;96295.63;5050918;27;102079;-68
2022/12/21 12:18:57;;;;;;;24.13;17.17;;;;;;;5.40;100.00;96293.13;4996959;28;105197;-69
2022/12/21 12:21:36;;;;;;;24.37;17.93;;;;;;;5.23;100.00;96297.38;5013619;28;101765;-69
2022/12/21 12:24:27;;;;;;;23.10;18.50;;;;;;;5.29;100.00;96291.22;5014156;28;104926;-69
2022/12/21 12:27:02;;;;;;;24.97;17.53;;;;;;;5.25;100.00;96289.28;4992121;28;103773;-68
2022/12/21 12:30:04;;;;;;;26.07;20.33;;;;;;;5.34;100.00;96277.41;5013899;28;101968;-68
2022/12/21 12:32:52;;;;;;;24.13;18.73;;;;;;;5.23;100.00;96296.59;5028630;28;102400;-69
2022/12/21 12:35:36;;;;;;;26.90;19.30;;;;;;;5.27;100.00;96287.22;5031361;28;102781;-68
2022/12/21 12:38:14;;;;;;;23.20;18.00;;;;;;;5.27;100.00;96284.56;5050035;27;102173;-68
2022/12/21 12:41:05;;;;;;;23.00;19.50;;;;;;;5.23;100.00;96288.69;5031579;27;105717;-68
2022/12/21 12:43:45;;;;;;;28.73;23.67;;;;;;;5.23;100.00;96278.16;5061828;27;101972;-68
2022/12/21 12:46:24;;;;;;;29.17;21.73;;;;;;;5.05;100.00;96280.75;5048365;27;102633;-68
2022/12/21 12:49:01;;;;;;;23.77;19.87;;;;;;;5.16;100.00;96270.31;5029362;27;104303;-68
2022/12/21 12:51:34;;;;;;;23.90;18.67;;;;;;;5.17;100.00;96266.63;5051779;27;101956;-68
2022/12/21 12:54:11;;;;;;;24.80;18.97;;;;;;;5.10;100.00;96271.19;5033785;27;104461;-69
2022/12/21 12:56:46;;;;;;;25.60;19.13;;;;;;;5.10;100.00;96260.63;5032926;27;105000;-68
2022/12/21 12:59:23;;;;;;;22.37;18.47;;;;;;;5.10;100.00;96259.81;5033211;27;101799;-68
2022/12/21 13:01:57;;;;;;;23.57;19.57;;;;;;;5.11;100.00;96256.97;5036452;27;105142;-68
2022/12/21 13:05:03;;;;;;;23.03;19.43;;;;;;;5.12;100.00;96258.59;5033119;27;101842;-68
2022/12/21 13:07:38;;;;;;;29.43;21.43;;;;;;;5.01;100.00;96256.66;5020804;27;105687;-68
2022/12/21 13:10:16;;;;;;;26.43;19.87;;;;;;;5.02;100.00;96253.00;5032712;27;106565;-68
2022/12/21 13:12:49;;;;;;;26.47;20.17;;;;;;;4.75;100.00;96258.78;5032166;27;102492;-68
2022/12/21 13:15:23;;;;;;;24.97;19.60;;;;;;;4.75;100.00;96254.28;5033340;27;105043;-68
2022/12/21 13:17:56;;;;;;;25.47;18.60;;;;;;;4.94;100.00;96255.94;5032503;27;108266;-68
2022/12/21 13:20:27;;;;;;;26.50;20.67;;;;;;;5.00;100.00;96251.63;5051670;27;102082;-68
2022/12/21 13:23:02;;;;;;;26.80;19.37;;;;;;;5.03;100.00;96254.63;5051273;27;102937;-68
2022/12/21 13:25:39;;;;;;;23.60;19.70;;;;;;;5.00;100.00;96246.34;5035112;27;103823;-68
2022/12/21 13:28:17;;;;;;;24.83;19.67;;;;;;;5.01;100.00;96253.22;5033049;27;105541;-68
2022/12/21 13:30:46;;;;;;;25.03;20.63;;;;;;;5.00;100.00;96249.78;5051065;27;102795;-68
2022/12/21 13:33:16;;;;;;;24.87;20.50;;;;;;;4.96;100.00;96251.25;5049077;27;102265;-68
2022/12/21 13:35:55;;;;;;;28.10;21.50;;;;;;;4.90;100.00;96260.03;5049556;27;102300;-68
2022/12/21 13:38:28;;;;;;;35.50;26.77;;;;;;;4.80;100.00;96261.56;5047812;27;102485;-68
2022/12/21 13:41:03;;;;;;;31.73;24.23;;;;;;;4.76;100.00;96255.13;5029135;27;101997;-68
2022/12/21 13:43:38;;;;;;;27.57;23.07;;;;;;;4.77;100.00;96260.16;5027772;27;103533;-67
2022/12/21 13:46:06;;;;;;;26.93;21.90;;;;;;;4.73;100.00;96263.44;5030321;27;105862;-68
2022/12/21 13:48:38;;;;;;;28.53;23.80;;;;;;;4.89;100.00;96263.69;5034398;27;102154;-67
2022/12/21 13:51:24;;;;;;;26.27;21.60;;;;;;;4.75;100.00;96264.03;5030154;27;105782;-67
2022/12/21 13:54:05;;;;;;;28.80;22.20;;;;;;;4.92;100.00;96262.44;5030924;27;102128;-67
2022/12/21 13:56:47;;;;;;;27.67;22.20;;;;;;;4.95;100.00;96262.81;5026958;27;105327;-67
2022/12/21 13:59:20;;;;;;;24.20;20.90;;;;;;;4.97;100.00;96260.75;5028540;27;105079;-67
2022/12/21 14:01:54;;;;;;;27.93;22.00;;;;;;;4.98;100.00;96261.56;5049285;27;102364;-67
2022/12/21 14:04:32;;;;;;;27.87;21.73;;;;;;;4.89;100.00;96261.06;5049234;27;102335;-67
2022/12/21 14:07:31;;;;;;;25.77;19.87;;;;;;;4.96;100.00;96258.38;5044572;27;102605;-67
2022/12/21 14:10:13;;;;;;;29.03;21.40;;;;;;;4.88;100.00;96256.81;5031905;27;102084;-67
2022/12/21 14:13:01;;;;;;;25.73;20.90;;;;;;;4.71;100.00;96260.22;5034665;27;103590;-67
2022/12/21 14:15:42;;;;;;;25.93;20.90;;;;;;;4.69;100.00;96257.00;5031857;27;101869;-68
2022/12/21 14:18:12;;;;;;;30.27;21.93;;;;;;;4.73;100.00;96263.44;5050755;27;102530;-68
2022/12/21 14:20:41;;;;;;;31.00;22.50;;;;;;;4.70;100.00;96254.13;5050252;27;102571;-67
2022/12/21 14:23:16;;;;;;;27.47;21.63;;;;;;;4.74;100.00;96275.59;5031961;27;101899;-67
2022/12/21 14:25:46;;;;;;;34.33;22.97;;;;;;;4.44;100.00;96270.19;5031845;27;105050;-67
2022/12/21 14:28:27;;;;;;;28.80;21.53;;;;;;;4.57;100.00;96277.16;5031718;27;105032;-68
2022/12/21 14:31:02;;;;;;;28.83;20.33;;;;;;;4.63;100.00;96274.47;5031933;27;102062;-67
2022/12/21 14:33:39;;;;;;;28.53;20.67;;;;;;;4.62;100.00;96278.13;5031897;27;105049;-68
2022/12/21 14:36:28;;;;;;;28.07;22.20;;;;;;;4.22;100.00;96287.38;5052552;27;101711;-67
2022/12/21 14:39:34;;;;;;;29.77;20.37;;;;;;;4.32;100.00;96271.88;5031543;27;104876;-68
2022/12/21 14:42:43;;;;;;;28.67;21.13;;;;;;;4.25;100.00;96284.28;4970341;28;105059;-68
2022/12/21 14:45:46;;;;;;;30.87;21.07;;;;;;;4.32;100.00;96282.41;4970502;28;101886;-68
2022/12/21 14:48:57;;;;;;;29.17;22.60;;;;;;;4.25;100.00;96288.78;4987202;28;103700;-68
2022/12/21 14:51:53;;;;;;;29.43;21.57;;;;;;;4.38;100.00;96280.75;4969784;28;105876;-68
2022/12/21 14:54:26;;;;;;;28.97;22.13;;;;;;;4.36;100.00;96282.81;4954013;28;102300;-68
2022/12/21 14:57:20;;;;;;;28.33;22.83;;;;;;;4.43;100.00;96288.81;4987517;28;102649;-68
2022/12/21 14:59:50;;;;;;;27.93;18.70;;;;;;;4.09;100.00;96286.66;4972838;28;105947;-68
2022/12/21 15:02:26;;;;;;;26.60;17.07;;;;;;;4.23;100.00;96282.88;4970457;28;105417;-68
2022/12/21 15:04:57;;;;;;;29.57;22.40;;;;;;;4.02;100.00;96286.69;4970083;28;105073;-68
2022/12/21 15:07:31;;;;;;;28.00;20.27;;;;;;;4.13;100.00;96293.06;4970617;28;101978;-68
2022/12/21 15:10:02;;;;;;;22.57;18.17;;;;;;;4.14;100.00;96290.25;4970197;28;103382;-68
2022/12/21 15:12:40;;;;;;;24.77;18.43;;;;;;;4.09;100.00;96286.66;4989527;27;105570;-68
2022/12/21 15:15:36;;;;;;;28.17;23.53;;;;;;;3.88;100.00;96286.97;5031294;27;101765;-68
2022/12/21 15:18:41;;;;;;;29.57;23.83;;;;;;;4.00;100.00;96293.16;5031283;27;105202;-68
2022/12/21 15:21:33;;;;;;;33.90;24.10;;;;;;;4.02;100.00;96285.88;5030610;27;105727;-68
2022/12/21 15:24:09;;;;;;;36.10;26.80;;;;;;;3.95;100.00;96293.81;5034316;27;101958;-68
2022/12/21 15:26:42;;;;;;;39.77;27.77;;;;;;;3.87;100.00;96280.09;5030502;27;105348;-68
2022/12/21 15:29:18;;;;;;;39.77;29.70;;;;;;;3.88;100.00;96284.34;5031064;27;101771;-68
2022/12/21 15:31:47;;;;;;;36.73;28.73;;;;;;;3.74;100.00;96288.06;5031188;27;104913;-68
2022/12/21 15:34:21;;;;;;;33.13;24.53;;;;;;;3.66;100.00;96289.09;5048774;27;103049;-68
2022/12/21 15:36:59;;;;;;;34.63;25.20;;;;;;;3.70;100.00;96286.84;5048185;27;101862;-68
2022/12/21 15:39:29;;;;;;;29.03;22.90;;;;;;;3.69;100.00;96285.25;5031071;27;105220;-68
2022/12/21 15:42:03;;;;;;;35.50;24.40;;;;;;;3.71;100.00;96285.88;5048916;27;102493;-69
2022/12/21 15:44:39;;;;;;;29.83;24.53;;;;;;;3.77;100.00;96282.38;5030982;27;101824;-69
2022/12/21 15:47:27;;;;;;;33.67;24.00;;;;;;;3.86;100.00;96289.00;5051111;27;102377;-69
2022/12/21 15:50:00;;;;;;;31.10;25.27;;;;;;;3.86;100.00;96278.47;5052665;27;101652;-69
2022/12/21 15:52:30;;;;;;;46.73;34.83;;;;;;;3.96;100.00;96284.09;5052917;27;102371;-69
2022/12/21 15:54:59;;;;;;;46.37;34.33;;;;;;;3.87;100.00;96266.97;5033989;27;103818;-69
2022/12/21 15:57:29;;;;;;;52.37;38.43;;;;;;;3.96;100.00;96274.38;5034197;27;102180;-69
2022/12/21 15:59:56;;;;;;;51.53;36.33;;;;;;;3.97;100.00;96283.06;5034280;27;105408;-69
2022/12/21 16:02:29;;;;;;;52.30;38.33;;;;;;;4.00;100.00;96278.22;5033741;27;103918;-69
2022/12/21 16:04:57;;;;;;;78.97;48.57;;;;;;;3.82;100.00;96279.94;5052817;27;101989;-69
2022/12/21 16:07:26;;;;;;;65.27;44.10;;;;;;;3.86;100.00;96281.09;5052474;27;102515;-69
2022/12/21 16:10:02;;;;;;;46.77;33.17;;;;;;;3.89;100.00;96283.31;5055618;27;102609;-69
2022/12/21 16:12:35;;;;;;;42.53;31.50;;;;;;;3.99;100.00;96289.72;5052142;27;102890;-69
2022/12/21 16:15:14;;;;;;;43.40;32.77;;;;;;;4.00;100.00;96293.16;5051083;27;102686;-69
2022/12/21 16:17:42;;;;;;;41.97;31.83;;;;;;;4.00;100.00;96288.72;5052405;27;101859;-69
2022/12/21 16:20:21;;;;;;;38.77;31.13;;;;;;;4.01;100.00;96281.63;5034113;27;103930;-69
2022/12/21 16:22:48;;;;;;;38.20;29.57;;;;;;;4.11;100.00;96274.06;5051570;27;102574;-69
2022/12/21 16:25:18;;;;;;;47.73;34.03;;;;;;;3.91;100.00;96276.84;5033615;27;102386;-69
2022/12/21 16:27:46;;;;;;;41.53;32.63;;;;;;;4.00;100.00;96282.66;5033644;27;103743;-69
2022/12/21 16:30:14;;;;;;;40.03;29.77;;;;;;;3.83;100.00;96274.44;5033504;27;105456;-69
2022/12/21 16:32:41;;;;;;;43.63;29.77;;;;;;;3.83;100.00;96265.75;5037322;27;101860;-69
2022/12/21 16:35:17;;;;;;;37.17;27.47;;;;;;;3.80;100.00;96266.16;5033238;27;105298;-69
2022/12/21 16:37:44;;;;;;;39.57;28.37;;;;;;;3.76;100.00;96267.63;5033960;27;102118;-69
2022/12/21 16:40:20;;;;;;;36.97;28.97;;;;;;;3.70;100.00;96263.19;5033899;27;104803;-69
2022/12/21 16:42:48;;;;;;;47.70;30.77;;;;;;;3.56;100.00;96264.28;5033249;27;105225;-69
2022/12/21 16:45:57;;;;;;;40.47;29.27;;;;;;;3.59;100.00;96263.84;5033557;27;101861;-69
2022/12/21 16:48:24;;;;;;;34.60;26.40;;;;;;;3.57;100.00;96258.00;5033249;27;104845;-69
2022/12/21 16:50:52;;;;;;;39.10;27.53;;;;;;;3.52;100.00;96256.03;5033117;27;103875;-69
2022/12/21 16:53:42;;;;;;;36.03;29.40;;;;;;;3.47;100.00;96260.28;5054796;27;103224;-69
2022/12/21 16:56:29;;;;;;;43.90;31.77;;;;;;;3.26;100.00;96253.50;5027808;27;103960;-69
2022/12/21 16:58:58;;;;;;;50.13;36.90;;;;;;;3.31;100.00;96255.50;5033139;27;101900;-67
2022/12/21 17:01:29;;;;;;;46.73;34.73;;;;;;;3.22;100.00;96267.28;5032332;27;103682;-69
2022/12/21 17:04:01;;;;;;;42.47;34.37;;;;;;;3.23;100.00;96268.88;5032902;27;103867;-69
2022/12/21 17:06:32;;;;;;;43.23;35.47;;;;;;;3.29;100.00;96268.03;5051967;27;101718;-69
2022/12/21 17:09:00;;;;;;;45.80;34.23;;;;;;;3.28;100.00;96267.22;5051531;27;102827;-69
2022/12/21 17:11:29;;;;;;;47.47;35.67;;;;;;;3.14;100.00;96276.19;5051113;27;102497;-69
2022/12/21 17:13:58;;;;;;;41.57;32.50;;;;;;;3.19;100.00;96270.28;5050192;27;101871;-69
2022/12/21 17:16:40;;;;;;;41.47;32.13;;;;;;;3.27;100.00;96262.19;5052719;27;102516;-69
2022/12/21 17:19:17;;;;;;;38.33;31.67;;;;;;;3.21;100.00;96273.50;5051707;27;101685;-69
2022/12/21 17:21:58;;;;;;;38.67;29.60;;;;;;;3.12;100.00;96265.06;5049988;27;102483;-69
2022/12/21 17:24:32;;;;;;;38.33;28.83;;;;;;;3.28;100.00;96266.44;5050983;27;102524;-69
2022/12/21 17:27:04;;;;;;;34.33;25.70;;;;;;;3.33;100.00;96277.13;5051405;27;102028;-70
2022/12/21 17:29:32;;;;;;;35.47;28.27;;;;;;;3.44;100.00;96261.50;5032985;27;103584;-69
2022/12/21 17:31:59;;;;;;;33.43;27.07;;;;;;;3.33;100.00;96275.28;5032487;27;105339;-69
2022/12/21 17:34:27;;;;;;;37.30;29.43;;;;;;;3.29;100.00;96271.47;5051517;27;102107;-69
2022/12/21 17:36:55;;;;;;;32.13;26.03;;;;;;;3.38;100.00;96277.31;5032973;27;105650;-69
2022/12/21 17:39:23;;;;;;;30.03;24.23;;;;;;;3.39;100.00;96279.72;5035814;27;105021;-67
2022/12/21 17:41:51;;;;;;;31.73;25.97;;;;;;;3.46;100.00;96277.06;5032587;27;105557;-68
2022/12/21 17:44:19;;;;;;;33.07;25.07;;;;;;;3.44;100.00;96269.38;5032284;27;105077;-68
2022/12/21 17:46:46;;;;;;;35.17;25.87;;;;;;;3.41;100.00;96272.44;5051119;27;101780;-68
2022/12/21 17:49:15;;;;;;;41.37;31.57;;;;;;;3.37;100.00;96265.97;5033127;27;105084;-68
2022/12/21 17:51:43;;;;;;;40.33;30.60;;;;;;;3.44;100.00;96266.75;5031936;27;105595;-68
2022/12/21 17:54:12;;;;;;;101.77;60.50;;;;;;;3.36;100.00;96266.19;5032452;27;101895;-68
2022/12/21 17:56:40;;;;;;;82.70;52.70;;;;;;;3.27;100.00;96265.63;5033226;27;104851;-68
2022/12/21 17:59:08;;;;;;;62.60;44.30;;;;;;;3.23;100.00;96274.13;5032256;27;104009;-68